Terminal Aerodrome Forecast
Issued by NWS

Home | Current Version | Previous Version | Text Only | Print | Product List | Glossary On
Versions: 1 2 3 4 5 6 7 8 9 10 11 12 13 14 15 16 17 18 19 20 21 22 23 24 25 26 27 28 29 30 31 32 33
000
FTUS45 KBOU 041740
TAFAPA
TAF
KAPA 041740Z 0418/0518 18008KT P6SM FEW140 SCT220
     FM042100 13007KT P6SM SCT120 BKN220
     FM050000 10006KT P6SM FEW060 BKN090 OVC140
     FM050300 VRB05KT P6SM VCSH BKN050 OVC100
     FM050600 23010KT P6SM VCSH SCT050 BKN120
     FM051300 28009KT P6SM FEW060 SCT140=

USA.gov is the U.S. government's official web portal to all federal, state and local government web resources and services.